Time;durP1;ratioP1;P1;durP2;ratioP2;P2;SDS_P1;SDS_P2;PMS_P1;PMS_P2;Temp;Humidity;BMP_temperature;BMP_pressure;BME280_temperature;BME280_humidity;BME280_pressure;Samples;Min_cycle;Max_cycle;Signal;HPM_P1;HPM_P2
2021/12/02 00:02:25;;;;;;;;;10.80;10.80;;;;;;;;5246374;28;8906;-74
2021/12/02 00:04:56;;;;;;;;;5.40;5.40;;;;;;;;5211452;28;8794;-73
2021/12/02 00:07:27;;;;;;;;;5.80;5.60;;;;;;;;5208540;28;8839;-74
2021/12/02 00:10:00;;;;;;;;;10.40;10.40;;;;;;;;5195470;28;8822;-75
2021/12/02 00:12:31;;;;;;;;;5.80;5.80;;;;;;;;5211294;28;8911;-73
2021/12/02 00:15:07;;;;;;;;;9.60;9.20;;;;;;;;5195257;28;8905;-73
2021/12/02 00:17:40;;;;;;;;;1.20;1.20;;;;;;;;5194575;28;8822;-71
2021/12/02 00:23:22;;;;;;;;;7.80;7.80;;;;;;;;5211429;28;8807;-73
2021/12/02 00:25:55;;;;;;;;;6.40;6.40;;;;;;;;5195199;28;8924;-72
2021/12/02 00:28:28;;;;;;;;;4.00;2.40;;;;;;;;5227568;28;8818;-73
2021/12/02 00:31:00;;;;;;;;;2.00;2.00;;;;;;;;5194287;28;8902;-72
2021/12/02 00:33:56;;;;;;;;;8.60;8.60;;;;;;;;5144366;28;8864;-73
2021/12/02 00:36:28;;;;;;;;;7.20;7.20;;;;;;;;5143289;28;8824;-73
2021/12/02 00:39:03;;;;;;;;;7.60;7.60;;;;;;;;5144187;28;8952;-73
2021/12/02 00:41:34;;;;;;;;;4.80;4.80;;;;;;;;5178009;28;8834;-72
2021/12/02 00:44:06;;;;;;;;;4.60;4.60;;;;;;;;5210599;28;8789;-72
2021/12/02 00:46:38;;;;;;;;;9.00;9.00;;;;;;;;5194513;28;9522;-72
2021/12/02 00:49:11;;;;;;;;;5.40;5.40;;;;;;;;5193919;28;8812;-73
2021/12/02 00:51:47;;;;;;;;;11.20;11.20;;;;;;;;5210299;28;8792;-71
2021/12/02 00:54:21;;;;;;;;;7.80;7.80;;;;;;;;5210800;28;8799;-71
2021/12/02 00:56:52;;;;;;;;;8.40;8.40;;;;;;;;5144360;28;8812;-72
2021/12/02 00:59:28;;;;;;;;;9.00;9.00;;;;;;;;5193936;28;8792;-72
2021/12/02 01:01:59;;;;;;;;;9.00;9.00;;;;;;;;5194289;28;9484;-72
2021/12/02 01:04:30;;;;;;;;;9.60;8.40;;;;;;;;5143376;28;8800;-72
2021/12/02 01:07:01;;;;;;;;;11.00;11.00;;;;;;;;5209022;28;8840;-73
2021/12/02 01:09:34;;;;;;;;;9.00;9.00;;;;;;;;5214401;28;8816;-73
2021/12/02 01:12:05;;;;;;;;;6.60;6.60;;;;;;;;5163903;28;8846;-74
2021/12/02 01:14:36;;;;;;;;;12.00;11.60;;;;;;;;5214210;28;8788;-76
2021/12/02 01:17:07;;;;;;;;;8.60;8.60;;;;;;;;5214184;28;8833;-76
2021/12/02 01:19:38;;;;;;;;;6.50;6.50;;;;;;;;5213284;28;8796;-75
2021/12/02 01:22:10;;;;;;;;;7.60;7.60;;;;;;;;5230750;28;10349;-75
2021/12/02 01:24:43;;;;;;;;;8.20;8.20;;;;;;;;5230593;28;8919;-74
2021/12/02 01:27:15;;;;;;;;;14.00;14.00;;;;;;;;5214061;28;8832;-75
2021/12/02 01:29:47;;;;;;;;;10.40;10.40;;;;;;;;5214002;28;9491;-74
2021/12/02 01:32:19;;;;;;;;;8.00;8.00;;;;;;;;5198028;28;8784;-74
2021/12/02 01:34:52;;;;;;;;;6.20;6.20;;;;;;;;5162949;28;8853;-73
2021/12/02 01:37:23;;;;;;;;;6.20;6.20;;;;;;;;5162920;28;8812;-74
2021/12/02 01:39:55;;;;;;;;;1.80;1.80;;;;;;;;5229839;28;8893;-74
2021/12/02 01:42:28;;;;;;;;;5.80;5.80;;;;;;;;5230561;28;8792;-75
2021/12/02 01:45:01;;;;;;;;;6.80;6.80;;;;;;;;5214410;28;8792;-74
2021/12/02 01:47:32;;;;;;;;;2.00;1.60;;;;;;;;5163442;28;9541;-74
2021/12/02 01:50:06;;;;;;;;;8.00;8.00;;;;;;;;5213558;28;8808;-74
2021/12/02 01:52:39;;;;;;;;;4.40;4.40;;;;;;;;5229909;28;8815;-74
2021/12/02 01:55:13;;;;;;;;;7.40;7.40;;;;;;;;5163013;28;8768;-72
2021/12/02 01:57:50;;;;;;;;;4.00;4.00;;;;;;;;5213860;28;8843;-72
2021/12/02 02:00:21;;;;;;;;;4.40;4.40;;;;;;;;5187011;28;8805;-70
2021/12/02 02:03:11;;;;;;;;;2.40;2.40;;;;;;;;5175198;28;8766;-72
2021/12/02 02:05:44;;;;;;;;;1.00;1.00;;;;;;;;5120824;28;8885;-72
2021/12/02 02:08:17;;;;;;;;;4.00;4.00;;;;;;;;5247662;28;8801;-71
2021/12/02 02:10:49;;;;;;;;;4.20;4.20;;;;;;;;5229667;28;8804;-72
2021/12/02 02:13:42;;;;;;;;;4.00;4.00;;;;;;;;5215930;28;8887;-72
2021/12/02 02:16:13;;;;;;;;;5.20;5.20;;;;;;;;5213634;28;9491;-72
2021/12/02 02:18:45;;;;;;;;;4.50;4.00;;;;;;;;5229464;28;8796;-73
2021/12/02 02:21:19;;;;;;;;;1.20;1.20;;;;;;;;5229899;28;8788;-72
2021/12/02 02:23:55;;;;;;;;;0.20;0.20;;;;;;;;5196925;28;8800;-71
2021/12/02 02:26:29;;;;;;;;;4.00;4.00;;;;;;;;5245992;28;8781;-71
2021/12/02 02:29:00;;;;;;;;;1.60;1.60;;;;;;;;5229948;28;8773;-71
2021/12/02 02:31:32;;;;;;;;;4.00;4.00;;;;;;;;5229445;28;8788;-71
2021/12/02 02:34:03;;;;;;;;;5.40;5.40;;;;;;;;5212909;28;8792;-71
2021/12/02 02:36:37;;;;;;;;;4.00;4.00;;;;;;;;5212643;28;8866;-72
2021/12/02 02:39:29;;;;;;;;;4.80;4.80;;;;;;;;5215404;28;8772;-73
2021/12/02 02:42:04;;;;;;;;;3.20;3.20;;;;;;;;5216661;28;8810;-73
2021/12/02 02:44:37;;;;;;;;;0.80;0.80;;;;;;;;5249900;28;8779;-71
2021/12/02 02:47:08;;;;;;;;;4.60;4.60;;;;;;;;5233575;28;8774;-71
2021/12/02 02:49:40;;;;;;;;;5.00;5.00;;;;;;;;5233026;28;8887;-71
2021/12/02 02:52:31;;;;;;;;;5.00;5.00;;;;;;;;5249548;28;8789;-71
2021/12/02 02:55:02;;;;;;;;;6.60;6.60;;;;;;;;5268360;28;8828;-71
2021/12/02 02:58:05;;;;;;;;;3.60;3.60;;;;;;;;5267576;28;8887;-72
2021/12/02 03:00:46;;;;;;;;;4.20;4.20;;;;;;;;5233288;28;8763;-72
2021/12/02 03:03:39;;;;;;;;;2.00;2.00;;;;;;;;5249589;28;8786;-70
2021/12/02 03:08:52;;;;;;;;;4.00;4.00;;;;;;;;5233309;28;8778;-71
2021/12/02 03:11:26;;;;;;;;;4.00;4.00;;;;;;;;5249875;28;8852;-72
2021/12/02 03:14:07;;;;;;;;;1.00;1.00;;;;;;;;5232855;28;8782;-71
2021/12/02 03:16:45;;;;;;;;;4.00;4.00;;;;;;;;5249555;28;8806;-71
2021/12/02 03:19:27;;;;;;;;;11.20;11.20;;;;;;;;5267781;28;8779;-71
2021/12/02 03:21:58;;;;;;;;;3.80;3.40;;;;;;;;5248833;28;8795;-70
2021/12/02 03:24:30;;;;;;;;;18.20;18.00;;;;;;;;5216211;28;8790;-70
2021/12/02 03:27:01;;;;;;;;;9.20;9.20;;;;;;;;5215911;28;8770;-70
2021/12/02 03:29:32;;;;;;;;;7.40;7.40;;;;;;;;5232657;28;8863;-72
2021/12/02 03:32:04;;;;;;;;;2.00;2.00;;;;;;;;5232151;28;8975;-70
2021/12/02 03:34:53;;;;;;;;;14.40;14.40;;;;;;;;5252390;28;8897;-73
2021/12/02 03:37:24;;;;;;;;;15.00;15.00;;;;;;;;5232008;28;8829;-73
2021/12/02 03:39:55;;;;;;;;;33.80;32.40;;;;;;;;5213478;28;8804;-73
2021/12/02 03:42:28;;;;;;;;;49.80;41.00;;;;;;;;5233442;28;8788;-73
2021/12/02 03:44:59;;;;;;;;;35.20;32.00;;;;;;;;5271267;28;8761;-73
2021/12/02 03:47:30;;;;;;;;;78.50;60.75;;;;;;;;5236361;28;8776;-72
2021/12/02 03:50:01;;;;;;;;;50.00;46.75;;;;;;;;5216015;28;11488;-72
2021/12/02 03:52:32;;;;;;;;;12.60;12.00;;;;;;;;5199241;28;8807;-72
2021/12/02 03:55:03;;;;;;;;;11.00;11.00;;;;;;;;5215854;28;8773;-72
2021/12/02 03:57:35;;;;;;;;;2.40;2.40;;;;;;;;5250157;28;9543;-72
2021/12/02 04:00:24;;;;;;;;;0.00;0.00;;;;;;;;5269287;28;9596;-71
2021/12/02 04:02:55;;;;;;;;;0.00;0.00;;;;;;;;5270703;28;8924;-71
2021/12/02 04:05:26;;;;;;;;;2.80;2.80;;;;;;;;5219296;28;8771;-71
2021/12/02 04:07:58;;;;;;;;;7.00;7.00;;;;;;;;5271587;28;8799;-71
2021/12/02 04:10:32;;;;;;;;;1.20;1.20;;;;;;;;5219195;28;11343;-70
2021/12/02 04:13:19;;;;;;;;;2.00;2.00;;;;;;;;5252706;28;8768;-69
2021/12/02 04:15:54;;;;;;;;;4.20;4.20;;;;;;;;5232266;28;8791;-69
2021/12/02 04:18:26;;;;;;;;;9.40;9.40;;;;;;;;5249561;28;8796;-69
2021/12/02 04:21:16;;;;;;;;;9.00;9.00;;;;;;;;5237237;28;8834;-72
2021/12/02 04:23:47;;;;;;;;;7.40;7.40;;;;;;;;5219430;28;8780;-72
2021/12/02 04:26:19;;;;;;;;;2.60;2.60;;;;;;;;5252959;28;8772;-72
2021/12/02 04:28:51;;;;;;;;;3.50;3.50;;;;;;;;5252301;28;8768;-72
2021/12/02 04:31:22;;;;;;;;;6.20;6.20;;;;;;;;5230958;28;8797;-72
2021/12/02 04:33:52;;;;;;;;;5.00;4.75;;;;;;;;5199103;28;8795;-72
2021/12/02 04:36:42;;;;;;;;;2.80;2.80;;;;;;;;5231679;28;8905;-72
2021/12/02 04:39:14;;;;;;;;;11.40;10.20;;;;;;;;5231483;28;8793;-72
2021/12/02 04:41:45;;;;;;;;;17.40;14.20;;;;;;;;5231562;28;8797;-72
2021/12/02 04:44:18;;;;;;;;;8.80;8.80;;;;;;;;5219098;28;9487;-72
2021/12/02 04:46:51;;;;;;;;;5.40;5.20;;;;;;;;5252116;28;8861;-72
2021/12/02 04:49:23;;;;;;;;;4.60;4.60;;;;;;;;5235085;28;8776;-72
2021/12/02 04:52:12;;;;;;;;;4.00;4.00;;;;;;;;5254444;28;8880;-71
2021/12/02 04:54:44;;;;;;;;;7.40;7.40;;;;;;;;5252052;28;8767;-72
2021/12/02 04:57:15;;;;;;;;;16.20;15.00;;;;;;;;5251355;28;8846;-71
2021/12/02 04:59:46;;;;;;;;;11.00;11.00;;;;;;;;5251731;28;8779;-70
2021/12/02 05:02:17;;;;;;;;;15.20;14.00;;;;;;;;5233111;28;8792;-71
2021/12/02 05:05:08;;;;;;;;;11.20;10.20;;;;;;;;5251598;28;8779;-72
2021/12/02 05:07:39;;;;;;;;;12.20;12.00;;;;;;;;5231163;28;8872;-72
2021/12/02 05:10:10;;;;;;;;;3.80;3.80;;;;;;;;5214312;28;8863;-72
2021/12/02 05:12:42;;;;;;;;;12.00;12.00;;;;;;;;5197528;28;8778;-72
2021/12/02 05:15:13;;;;;;;;;15.20;15.20;;;;;;;;5163102;28;8924;-72
2021/12/02 05:17:44;;;;;;;;;11.40;11.40;;;;;;;;5230471;28;8836;-71
2021/12/02 05:20:16;;;;;;;;;19.20;18.40;;;;;;;;5163302;28;8809;-71
2021/12/02 05:22:47;;;;;;;;;12.40;11.80;;;;;;;;5209495;28;8805;-73
2021/12/02 05:25:18;;;;;;;;;25.20;23.40;;;;;;;;5226943;28;8795;-73
2021/12/02 05:27:49;;;;;;;;;38.80;35.80;;;;;;;;5226194;28;8885;-73
2021/12/02 05:30:20;;;;;;;;;41.40;37.60;;;;;;;;5220713;28;8794;-73
2021/12/02 05:37:14;;;;;;;;;24.40;24.40;;;;;;;;5162581;28;8785;-72
2021/12/02 05:39:45;;;;;;;;;22.80;20.20;;;;;;;;5213578;28;8887;-72
2021/12/02 05:46:40;;;;;;;;;40.20;37.40;;;;;;;;5162648;28;10153;-72
2021/12/02 05:49:11;;;;;;;;;15.25;15.25;;;;;;;;5162671;28;8790;-71
2021/12/02 05:51:42;;;;;;;;;16.75;16.25;;;;;;;;5230075;28;8806;-72
2021/12/02 05:54:14;;;;;;;;;8.40;6.40;;;;;;;;5213089;28;10915;-71
2021/12/02 05:56:45;;;;;;;;;9.50;9.25;;;;;;;;5230250;28;8801;-72
2021/12/02 05:59:16;;;;;;;;;4.00;4.00;;;;;;;;5213422;28;11528;-71
2021/12/02 06:01:47;;;;;;;;;10.00;9.75;;;;;;;;5230056;28;8773;-71
2021/12/02 06:04:18;;;;;;;;;16.80;16.60;;;;;;;;5213196;28;9143;-73
2021/12/02 06:06:50;;;;;;;;;13.20;12.40;;;;;;;;5248694;28;8830;-70
2021/12/02 06:09:22;;;;;;;;;21.20;21.00;;;;;;;;5192616;28;8858;-71
2021/12/02 06:11:55;;;;;;;;;32.80;29.00;;;;;;;;5192744;28;8803;-73
2021/12/02 06:14:26;;;;;;;;;31.60;29.60;;;;;;;;5143104;28;8814;-74
2021/12/02 06:21:22;;;;;;;;;23.60;21.40;;;;;;;;5143244;28;8751;-73
2021/12/02 06:24:14;;;;;;;;;19.00;19.00;;;;;;;;5195077;28;8908;-72
2021/12/02 06:26:45;;;;;;;;;38.80;37.60;;;;;;;;5208798;28;9549;-72
2021/12/02 06:29:16;;;;;;;;;51.00;42.80;;;;;;;;5208729;28;8937;-71
2021/12/02 06:32:07;;;;;;;;;41.40;36.20;;;;;;;;5142409;28;8836;-73
2021/12/02 06:34:40;;;;;;;;;19.80;18.00;;;;;;;;5207717;28;8794;-72
2021/12/02 06:37:11;;;;;;;;;27.50;25.25;;;;;;;;5208570;28;8841;-73
2021/12/02 06:39:42;;;;;;;;;20.25;19.25;;;;;;;;5208575;28;9506;-73
2021/12/02 06:42:15;;;;;;;;;20.40;17.40;;;;;;;;5192264;28;9500;-73
2021/12/02 06:44:46;;;;;;;;;14.40;14.00;;;;;;;;5208204;28;8820;-71
2021/12/02 06:47:19;;;;;;;;;26.50;25.50;;;;;;;;5225070;28;9478;-71
2021/12/02 06:49:50;;;;;;;;;12.60;11.20;;;;;;;;5141895;28;10608;-73
2021/12/02 06:52:23;;;;;;;;;24.60;22.60;;;;;;;;5207802;28;8833;-73
2021/12/02 06:54:55;;;;;;;;;21.60;20.80;;;;;;;;5175417;28;8791;-72
2021/12/02 06:57:26;;;;;;;;;36.00;28.60;;;;;;;;5175608;28;8844;-72
2021/12/02 07:00:02;;;;;;;;;45.25;41.75;;;;;;;;5191549;28;8907;-72
2021/12/02 07:02:33;;;;;;;;;57.40;47.80;;;;;;;;5191814;28;11632;-72
2021/12/02 07:05:06;;;;;;;;;24.40;23.60;;;;;;;;5175719;28;8860;-72
2021/12/02 07:07:38;;;;;;;;;36.40;34.00;;;;;;;;5249548;28;8830;-72
2021/12/02 07:10:11;;;;;;;;;51.40;47.40;;;;;;;;5249180;28;8791;-72
2021/12/02 07:13:01;;;;;;;;;36.20;29.80;;;;;;;;5252069;28;8893;-72
2021/12/02 07:15:42;;;;;;;;;26.60;26.60;;;;;;;;5233278;28;8983;-72
2021/12/02 07:18:16;;;;;;;;;20.00;19.60;;;;;;;;5249034;28;9561;-72
2021/12/02 07:20:49;;;;;;;;;31.60;30.80;;;;;;;;5232427;28;8813;-73
2021/12/02 07:23:22;;;;;;;;;29.60;29.60;;;;;;;;5232544;28;8805;-73
2021/12/02 07:25:56;;;;;;;;;27.20;25.20;;;;;;;;5216115;28;8783;-72
2021/12/02 07:28:28;;;;;;;;;20.40;20.40;;;;;;;;5282833;28;8828;-72
2021/12/02 07:30:59;;;;;;;;;30.60;29.80;;;;;;;;5232392;28;8855;-71
2021/12/02 07:33:33;;;;;;;;;21.20;20.00;;;;;;;;5267463;28;9470;-72
2021/12/02 07:36:05;;;;;;;;;16.20;16.20;;;;;;;;5248642;28;8775;-72
2021/12/02 07:38:37;;;;;;;;;22.00;20.40;;;;;;;;5232685;28;8820;-72
2021/12/02 07:41:11;;;;;;;;;16.00;15.20;;;;;;;;5216016;28;8859;-72
2021/12/02 07:43:45;;;;;;;;;17.00;16.75;;;;;;;;5215636;28;9474;-73
2021/12/02 07:46:16;;;;;;;;;17.80;17.40;;;;;;;;5249284;28;10543;-73
2021/12/02 07:48:49;;;;;;;;;7.60;6.80;;;;;;;;5232958;28;9002;-72
2021/12/02 07:51:21;;;;;;;;;22.60;21.60;;;;;;;;5248895;28;8909;-72
2021/12/02 07:53:52;;;;;;;;;19.20;17.80;;;;;;;;5249055;28;8787;-73
2021/12/02 07:56:23;;;;;;;;;22.60;21.60;;;;;;;;5232085;28;8783;-73
2021/12/02 07:59:17;;;;;;;;;14.20;14.20;;;;;;;;5252041;28;8779;-72
2021/12/02 08:01:48;;;;;;;;;19.40;19.20;;;;;;;;5232228;28;8767;-69
2021/12/02 08:04:19;;;;;;;;;26.20;25.00;;;;;;;;5267254;28;9453;-70
2021/12/02 08:06:50;;;;;;;;;22.50;22.00;;;;;;;;5231968;28;8838;-70
2021/12/02 08:09:21;;;;;;;;;35.75;34.75;;;;;;;;5232114;28;8781;-71
2021/12/02 08:11:53;;;;;;;;;38.40;36.60;;;;;;;;5215478;28;9493;-71
2021/12/02 08:14:25;;;;;;;;;31.20;29.80;;;;;;;;5232569;28;9477;-70
2021/12/02 08:16:56;;;;;;;;;22.00;18.20;;;;;;;;5232140;28;8845;-70
2021/12/02 08:19:27;;;;;;;;;42.00;41.00;;;;;;;;5248999;28;9481;-68
2021/12/02 08:21:58;;;;;;;;;25.60;23.80;;;;;;;;5231723;28;11410;-69
2021/12/02 08:24:29;;;;;;;;;34.40;30.20;;;;;;;;5231854;28;8763;-68
2021/12/02 08:27:00;;;;;;;;;38.25;37.50;;;;;;;;5248721;28;8795;-68
2021/12/02 08:29:32;;;;;;;;;45.40;41.60;;;;;;;;5234409;28;8771;-68
2021/12/02 08:32:04;;;;;;;;;38.00;30.60;;;;;;;;5236359;28;8767;-68
2021/12/02 08:34:35;;;;;;;;;26.20;25.00;;;;;;;;5252249;28;8900;-69
2021/12/02 08:37:08;;;;;;;;;27.80;27.80;;;;;;;;5235668;28;8837;-69
2021/12/02 08:39:43;;;;;;;;;17.40;16.00;;;;;;;;5235403;28;8790;-68
2021/12/02 08:42:18;;;;;;;;;14.40;14.40;;;;;;;;5252676;28;8791;-67
2021/12/02 08:44:50;;;;;;;;;14.20;14.20;;;;;;;;5235644;28;8790;-67
2021/12/02 08:47:23;;;;;;;;;12.80;12.80;;;;;;;;5270084;28;8789;-69
2021/12/02 08:49:55;;;;;;;;;17.80;17.80;;;;;;;;5235522;28;8782;-70
2021/12/02 08:52:27;;;;;;;;;20.00;18.40;;;;;;;;5235518;28;8822;-69
2021/12/02 08:54:59;;;;;;;;;11.60;11.60;;;;;;;;5252151;28;8790;-69
2021/12/02 08:57:31;;;;;;;;;8.00;8.00;;;;;;;;5251924;28;9489;-69
2021/12/02 09:00:25;;;;;;;;;13.80;13.80;;;;;;;;5252245;28;8770;-71
2021/12/02 09:03:22;;;;;;;;;9.80;9.80;;;;;;;;5242026;28;8823;-69
2021/12/02 09:05:54;;;;;;;;;11.60;10.80;;;;;;;;5242317;28;8951;-69
2021/12/02 09:12:50;;;;;;;;;21.60;20.80;;;;;;;;5163289;28;8728;-69
2021/12/02 09:15:21;;;;;;;;;8.00;7.60;;;;;;;;5197824;28;8788;-69
2021/12/02 09:17:52;;;;;;;;;29.40;29.40;;;;;;;;5213720;28;8850;-68
2021/12/02 09:20:23;;;;;;;;;19.00;18.25;;;;;;;;5214281;28;8789;-68
2021/12/02 09:22:54;;;;;;;;;26.25;24.00;;;;;;;;5163598;28;8800;-70
2021/12/02 09:25:25;;;;;;;;;26.25;25.00;;;;;;;;5214190;28;10248;-69
2021/12/02 09:27:55;;;;;;;;;7.50;7.50;;;;;;;;5214383;28;8796;-68
2021/12/02 09:30:27;;;;;;;;;28.50;23.75;;;;;;;;5163019;28;8939;-68
2021/12/02 09:32:58;;;;;;;;;15.00;13.00;;;;;;;;5196837;28;9487;-69
2021/12/02 09:39:54;;;;;;;;;25.40;25.20;;;;;;;;5122221;29;8729;-70
2021/12/02 09:46:48;;;;;;;;;19.00;18.20;;;;;;;;5122816;28;11458;-69
2021/12/02 09:49:19;;;;;;;;;19.00;19.00;;;;;;;;5123105;28;8810;-69
2021/12/02 09:52:13;;;;;;;;;17.80;17.80;;;;;;;;5121971;28;8784;-70
2021/12/02 09:54:56;;;;;;;;;22.00;19.20;;;;;;;;5122380;28;8931;-71
2021/12/02 09:57:33;;;;;;;;;29.80;28.60;;;;;;;;5121650;28;8836;-70
2021/12/02 10:00:06;;;;;;;;;15.00;15.00;;;;;;;;5106596;28;9498;-70
2021/12/02 10:02:42;;;;;;;;;11.20;11.20;;;;;;;;5121344;28;8820;-70
2021/12/02 10:05:14;;;;;;;;;7.60;6.60;;;;;;;;5121466;28;8990;-70
2021/12/02 10:08:06;;;;;;;;;13.20;13.20;;;;;;;;5243924;28;8830;-71
2021/12/02 10:10:51;;;;;;;;;16.60;16.40;;;;;;;;5196420;28;8837;-71
2021/12/02 10:13:34;;;;;;;;;9.20;9.20;;;;;;;;5213550;28;8823;-70
2021/12/02 10:16:09;;;;;;;;;10.00;10.00;;;;;;;;5230510;28;8792;-70
2021/12/02 10:18:56;;;;;;;;;16.00;14.40;;;;;;;;5229595;28;8884;-71
2021/12/02 10:22:02;;;;;;;;;16.00;16.00;;;;;;;;5217651;28;8935;-71
2021/12/02 10:24:40;;;;;;;;;10.40;10.40;;;;;;;;5162902;28;9401;-71
2021/12/02 10:27:13;;;;;;;;;15.60;15.60;;;;;;;;5196522;28;8796;-70
2021/12/02 10:29:47;;;;;;;;;15.40;12.40;;;;;;;;5162317;28;8788;-70
2021/12/02 10:32:21;;;;;;;;;15.60;14.60;;;;;;;;5196189;28;8800;-71
2021/12/02 10:35:03;;;;;;;;;13.00;13.00;;;;;;;;5196952;28;8803;-71
2021/12/02 10:37:36;;;;;;;;;13.00;13.00;;;;;;;;5212216;28;8831;-70
2021/12/02 10:40:14;;;;;;;;;19.80;19.60;;;;;;;;5229582;28;8811;-70
2021/12/02 10:42:45;;;;;;;;;15.00;13.80;;;;;;;;5229432;28;9564;-70
2021/12/02 10:45:21;;;;;;;;;13.40;13.00;;;;;;;;5213422;28;8784;-69
2021/12/02 10:47:54;;;;;;;;;11.60;9.20;;;;;;;;5229058;28;8816;-70
2021/12/02 10:50:26;;;;;;;;;27.00;27.00;;;;;;;;5213052;28;8818;-70
2021/12/02 10:53:15;;;;;;;;;23.00;21.60;;;;;;;;5228819;28;8804;-69
2021/12/02 10:55:57;;;;;;;;;20.50;19.25;;;;;;;;5212308;28;8823;-71
2021/12/02 10:58:31;;;;;;;;;14.00;12.80;;;;;;;;5196170;28;8808;-72
2021/12/02 11:01:02;;;;;;;;;15.40;14.80;;;;;;;;5212559;28;8824;-71
2021/12/02 11:03:33;;;;;;;;;25.00;23.25;;;;;;;;5161499;28;8855;-71
2021/12/02 11:06:04;;;;;;;;;17.50;16.50;;;;;;;;5228777;28;8826;-71
2021/12/02 11:08:35;;;;;;;;;20.60;19.80;;;;;;;;5212059;28;8914;-70
2021/12/02 11:11:20;;;;;;;;;14.00;14.00;;;;;;;;5246115;28;8941;-71
2021/12/02 11:13:51;;;;;;;;;13.00;13.00;;;;;;;;5246308;28;8783;-71
2021/12/02 11:16:35;;;;;;;;;27.20;25.80;;;;;;;;5245396;28;8921;-71
2021/12/02 11:19:24;;;;;;;;;24.40;24.40;;;;;;;;5246398;28;8860;-70
2021/12/02 11:22:03;;;;;;;;;14.60;13.60;;;;;;;;5212826;28;8794;-71
2021/12/02 11:24:37;;;;;;;;;19.80;19.80;;;;;;;;5212254;28;8799;-70
2021/12/02 11:27:11;;;;;;;;;21.80;21.80;;;;;;;;5212188;28;8803;-70
2021/12/02 11:29:46;;;;;;;;;20.60;19.80;;;;;;;;5228474;28;8799;-71
2021/12/02 11:32:25;;;;;;;;;30.80;30.60;;;;;;;;5212233;28;8783;-70
2021/12/02 11:34:59;;;;;;;;;18.40;16.40;;;;;;;;5212627;28;8813;-72
2021/12/02 11:37:35;;;;;;;;;8.00;8.00;;;;;;;;5212135;28;8864;-71
2021/12/02 11:40:08;;;;;;;;;16.40;16.40;;;;;;;;5246995;28;9481;-71
2021/12/02 11:42:39;;;;;;;;;15.40;13.60;;;;;;;;5245190;28;8810;-72
2021/12/02 11:45:15;;;;;;;;;22.60;20.40;;;;;;;;5228593;28;8788;-71
2021/12/02 11:47:47;;;;;;;;;20.20;20.20;;;;;;;;5245959;28;9493;-71
2021/12/02 11:50:19;;;;;;;;;15.80;14.60;;;;;;;;5228616;28;9290;-71
2021/12/02 11:52:51;;;;;;;;;15.60;15.00;;;;;;;;5229233;28;9537;-72
2021/12/02 11:55:25;;;;;;;;;14.20;14.20;;;;;;;;5228468;28;8842;-70
2021/12/02 11:57:57;;;;;;;;;16.60;15.20;;;;;;;;5246534;28;8821;-71
2021/12/02 12:00:32;;;;;;;;;3.60;3.20;;;;;;;;5245185;28;8795;-72
2021/12/02 12:03:07;;;;;;;;;14.60;14.20;;;;;;;;5245220;28;8784;-72
2021/12/02 12:05:42;;;;;;;;;12.40;12.40;;;;;;;;5241166;28;8890;-72
2021/12/02 12:08:34;;;;;;;;;10.80;9.00;;;;;;;;5198962;28;9455;-71
2021/12/02 12:11:25;;;;;;;;;16.20;16.00;;;;;;;;5199493;28;8835;-70
2021/12/02 12:13:57;;;;;;;;;1.80;1.80;;;;;;;;5215591;28;8807;-72
2021/12/02 12:16:38;;;;;;;;;17.20;16.20;;;;;;;;5163896;28;8884;-72
2021/12/02 12:19:29;;;;;;;;;10.00;10.00;;;;;;;;5222222;28;8796;-72
2021/12/02 12:22:02;;;;;;;;;12.20;12.20;;;;;;;;5198181;28;8800;-72
2021/12/02 12:24:44;;;;;;;;;11.20;10.20;;;;;;;;5198693;28;8813;-72
2021/12/02 12:27:22;;;;;;;;;15.00;14.60;;;;;;;;5199410;28;8812;-72
2021/12/02 12:30:09;;;;;;;;;8.60;8.60;;;;;;;;5232568;28;8902;-72
2021/12/02 12:36:05;;;;;;;;;13.00;12.20;;;;;;;;5231605;28;8862;-72
2021/12/02 12:38:37;;;;;;;;;9.80;9.80;;;;;;;;5198395;28;8905;-71
2021/12/02 12:41:15;;;;;;;;;10.80;10.80;;;;;;;;5215534;28;8776;-72
2021/12/02 12:43:47;;;;;;;;;8.60;8.60;;;;;;;;5198660;28;8780;-71
2021/12/02 12:46:24;;;;;;;;;18.00;14.20;;;;;;;;5231553;28;8911;-70
2021/12/02 12:49:13;;;;;;;;;12.80;12.80;;;;;;;;5198536;28;8775;-71
2021/12/02 12:51:51;;;;;;;;;18.20;17.20;;;;;;;;5214969;28;8792;-71
2021/12/02 12:54:41;;;;;;;;;19.00;19.00;;;;;;;;5221848;28;8784;-72
2021/12/02 12:57:14;;;;;;;;;25.00;22.00;;;;;;;;5231018;28;9491;-72
2021/12/02 13:00:04;;;;;;;;;22.80;21.40;;;;;;;;5221009;28;8791;-74
2021/12/02 13:02:51;;;;;;;;;42.60;39.80;;;;;;;;5214367;28;8800;-70
2021/12/02 13:05:41;;;;;;;;;19.00;19.00;;;;;;;;5214426;28;8768;-70
2021/12/02 13:08:38;;;;;;;;;15.40;4.20;;;;;;;;5216869;28;8888;-78
2021/12/02 13:11:14;;;;;;;;;22.20;20.60;;;;;;;;5214281;28;8815;-71
2021/12/02 13:13:46;;;;;;;;;18.80;18.80;;;;;;;;5197341;28;8796;-71
2021/12/02 13:16:17;;;;;;;;;13.20;13.20;;;;;;;;5162671;28;9628;-72
2021/12/02 13:18:50;;;;;;;;;16.20;14.00;;;;;;;;5214046;28;8800;-72
2021/12/02 13:21:21;;;;;;;;;17.60;17.60;;;;;;;;5231516;28;8803;-70
2021/12/02 13:24:08;;;;;;;;;10.00;9.20;;;;;;;;5213636;28;8780;-72
2021/12/02 13:26:42;;;;;;;;;21.20;20.20;;;;;;;;5197159;28;8804;-72
2021/12/02 13:29:23;;;;;;;;;20.60;20.60;;;;;;;;5197135;28;8796;-71
2021/12/02 13:31:55;;;;;;;;;17.40;16.40;;;;;;;;5163204;28;8816;-71
2021/12/02 13:34:33;;;;;;;;;11.40;11.40;;;;;;;;5229639;28;9565;-71
2021/12/02 13:37:10;;;;;;;;;16.00;14.60;;;;;;;;5213582;28;9545;-71
2021/12/02 13:39:42;;;;;;;;;15.20;15.20;;;;;;;;5229597;28;8800;-73
2021/12/02 13:42:14;;;;;;;;;16.40;16.40;;;;;;;;5213945;28;8831;-70
2021/12/02 13:44:53;;;;;;;;;12.40;12.00;;;;;;;;5196776;28;8802;-69
2021/12/02 13:47:33;;;;;;;;;19.60;19.60;;;;;;;;5163169;28;8776;-69
2021/12/02 13:50:06;;;;;;;;;14.20;14.20;;;;;;;;5197340;28;8806;-70
2021/12/02 13:52:43;;;;;;;;;25.60;25.40;;;;;;;;5230221;28;8800;-69
2021/12/02 13:55:18;;;;;;;;;12.80;12.80;;;;;;;;5230238;28;9624;-70
2021/12/02 13:57:56;;;;;;;;;7.60;6.00;;;;;;;;5196797;28;8827;-70
2021/12/02 14:04:53;;;;;;;;;18.20;18.00;;;;;;;;5162608;28;8720;-69
2021/12/02 14:07:25;;;;;;;;;21.40;19.20;;;;;;;;5212820;28;8840;-70
2021/12/02 14:10:16;;;;;;;;;24.40;24.00;;;;;;;;5219723;28;8835;-70
2021/12/02 14:12:53;;;;;;;;;16.20;15.20;;;;;;;;5213574;28;8819;-70
2021/12/02 14:15:26;;;;;;;;;26.20;21.60;;;;;;;;5213820;28;8777;-69
2021/12/02 14:18:01;;;;;;;;;21.60;21.60;;;;;;;;5229576;28;8854;-69
2021/12/02 14:20:42;;;;;;;;;30.40;29.40;;;;;;;;5196898;28;8776;-69
2021/12/02 14:23:14;;;;;;;;;23.40;23.40;;;;;;;;5196377;28;8769;-69
2021/12/02 14:25:47;;;;;;;;;16.20;15.60;;;;;;;;5196305;28;8792;-69
2021/12/02 14:28:21;;;;;;;;;20.20;19.60;;;;;;;;5162203;28;8799;-69
2021/12/02 14:31:04;;;;;;;;;13.00;13.00;;;;;;;;5212676;28;8776;-69
2021/12/02 14:33:34;;;;;;;;;18.80;18.00;;;;;;;;5162395;28;8788;-69
2021/12/02 14:36:10;;;;;;;;;16.20;14.40;;;;;;;;5212611;28;8776;-69
2021/12/02 14:38:46;;;;;;;;;25.40;24.20;;;;;;;;5196010;28;8803;-69
2021/12/02 14:41:18;;;;;;;;;29.00;26.60;;;;;;;;5228983;28;8784;-70
2021/12/02 14:43:57;;;;;;;;;56.20;46.60;;;;;;;;5161715;28;9646;-69
2021/12/02 14:46:31;;;;;;;;;48.60;44.80;;;;;;;;5162315;28;8811;-69
2021/12/02 14:49:05;;;;;;;;;42.20;32.60;;;;;;;;5195540;28;8928;-69
2021/12/02 14:51:42;;;;;;;;;18.40;18.40;;;;;;;;5195456;28;8788;-70
2021/12/02 14:54:14;;;;;;;;;25.00;24.60;;;;;;;;5195744;28;8788;-68
2021/12/02 14:56:47;;;;;;;;;52.80;43.60;;;;;;;;5195996;28;8855;-70
2021/12/02 14:59:24;;;;;;;;;21.20;19.80;;;;;;;;5228344;28;8784;-69
2021/12/02 15:01:59;;;;;;;;;37.60;34.40;;;;;;;;5212933;28;8780;-69
2021/12/02 15:04:32;;;;;;;;;30.40;27.40;;;;;;;;5162085;28;8882;-68
2021/12/02 15:07:23;;;;;;;;;41.40;35.80;;;;;;;;5211965;28;8820;-69
2021/12/02 15:10:03;;;;;;;;;24.80;24.00;;;;;;;;5262753;28;8800;-68
2021/12/02 15:12:39;;;;;;;;;23.60;23.60;;;;;;;;5194509;28;8827;-68
2021/12/02 15:15:13;;;;;;;;;25.00;22.20;;;;;;;;5195487;28;8803;-69
2021/12/02 15:17:49;;;;;;;;;20.80;18.60;;;;;;;;5195444;28;8958;-70
2021/12/02 15:20:31;;;;;;;;;38.20;36.00;;;;;;;;5228521;28;8869;-69
2021/12/02 15:23:26;;;;;;;;;18.20;18.20;;;;;;;;5218167;28;8788;-72
2021/12/02 15:26:07;;;;;;;;;41.80;41.40;;;;;;;;5210394;28;8831;-73
2021/12/02 15:32:57;;;;;;;;;19.80;18.00;;;;;;;;5162127;28;9596;-71
2021/12/02 15:40:01;;;;;;;;;21.40;20.40;;;;;;;;5163915;28;8740;-72
2021/12/02 15:42:36;;;;;;;;;23.40;23.00;;;;;;;;5247800;28;8906;-69
2021/12/02 15:45:09;;;;;;;;;28.40;27.20;;;;;;;;5199139;28;8792;-73
2021/12/02 15:47:42;;;;;;;;;17.20;17.20;;;;;;;;5164500;28;8804;-71
2021/12/02 15:50:23;;;;;;;;;15.60;15.60;;;;;;;;5233260;28;8816;-70
2021/12/02 15:57:18;;;;;;;;;15.00;14.20;;;;;;;;5164481;28;8793;-71
2021/12/02 15:59:48;;;;;;;;;22.25;22.25;;;;;;;;5232950;28;8782;-69
2021/12/02 16:05:14;;;;;;;;;21.80;21.80;;;;;;;;5164596;28;9586;-71
2021/12/02 16:07:55;;;;;;;;;25.00;24.20;;;;;;;;5231416;28;8866;-71
2021/12/02 16:13:16;;;;;;;;;32.60;29.40;;;;;;;;5230132;28;9467;-72
2021/12/02 16:16:05;;;;;;;;;10.80;7.00;;;;;;;;5220472;28;8976;-72
2021/12/02 16:18:36;;;;;;;;;33.25;27.25;;;;;;;;5162781;28;8832;-71
2021/12/02 16:21:07;;;;;;;;;32.00;23.40;;;;;;;;5194148;28;10314;-72
2021/12/02 16:23:43;;;;;;;;;43.80;41.80;;;;;;;;5193607;28;8803;-73
2021/12/02 16:26:32;;;;;;;;;31.40;26.40;;;;;;;;5200519;28;8855;-71